AirNav   Everest Fuels
 
 561 users online  

1S2 Darrington Municipal Airport
Darrington, Washington, USA

GOING TO DARRINGTON?


FAA INFORMATION EFFECTIVE 26 JANUARY 2023

Location

FAA Identifier: 1S2
Lat/Long: 48-15-31.0050N 121-36-36.7330W
48-15.516750N 121-36.612217W
48.2586125,-121.6102036
(estimated)
Elevation: 553 ft. / 169 m (estimated)
Variation: 21E (1985)
Time zone: UTC -8 (UTC -7 during Daylight Saving Time)
Zip code: 98241

Airport Operations

Airport use: Open to the public
Activation date: 01/1948
Control tower: no
ARTCC: SEATTLE CENTER
FSS: SEATTLE FLIGHT SERVICE STATION
NOTAMs facility: SEA (NOTAM-D service available)
Attendance: UNATNDD
Wind indicator: lighted
Segmented circle: no
Lights: ACTVT MIRL RWY 10/28 - CTAF.
Beacon: white-green (lighted land airport)
ARPT BCN OTS. Operates sunset to sunrise.

Airport Communications

CTAF: 122.9

Nearby radio navigation aids

VOR radial/distance  VOR name  Freq  Var
PAEr033/33.6PAINE VOR/DME110.6020E

 
NDB name  Hdg/Dist  Freq  Var  ID
SKAGIT/BAY VIEW095/34.624016EBVS -... ...- ...

Airport Services

Parking: tiedowns
Airframe service: NONE
Powerplant service: NONE
Bottled oxygen: NONE
Bulk oxygen: NONE

Runway Information

Runway 10/28

Dimensions: 2491 x 40 ft. / 759 x 12 m
Surface: asphalt, in good condition
Runway edge lights: medium intensity
MIRL RY 10/28 OTS INDEFLY.
RUNWAY 10  RUNWAY 28
Latitude: 48-15.588983N48-15.444517N
Longitude: 121-36.899333W121-36.325117W
Elevation: 544.0 ft.553.0 ft.
Traffic pattern: leftleft
Runway heading: 090 magnetic, 111 true270 magnetic, 291 true
Markings: basic, in good conditionbasic, in good condition
Obstructions: 65 ft. trees, 905 ft. from runway, 10:1 slope to clear
FENCE AT 40 FT, 104 FT R; 3 FT SIGN, 65 FT R, 29 FT FM THLD.
15 ft. road, 305 ft. from runway, 126 ft. left of centerline, 7:1 slope to clear
LOGS 78 FT R, ROAD 90 FT R, 35 FT TREES 118 FT R.

Airport Ownership and Management from official FAA records

Ownership: Publicly-owned
Owner: TOWN OF DARRINGTON
P.O. BOX 397
DARRINGTON, WA 98241
Phone 360-436-1131
Manager: JIM HALE
P.O. BOX 312
DARRINGTON, WA 98241
Phone 360-631-1928
MANAGER'S CELL PHONE NUMBER IS 360-631-1928.

Airport Operational Statistics

Aircraft based on the field: 19
Single engine airplanes: 5
Helicopters: 4
Gliders airplanes: 2
Ultralights: 8
    
Aircraft operations: avg 44/week *
67% local general aviation
33% transient general aviation
* for 12-month period ending 31 December 2019

Additional Remarks

CLSD WHEN SNOW ON RY.
TURB ON HOT DAYS LNDG W IN TRSN EAST APPROACH.
TWYS MARKED WITH BLUE REFLECTORS.
FOR CD CTC SEATTLE ARTCC AT 253-351-3694.

Instrument Procedures

There are no published instrument procedures at 1S2.

Some nearby airports with instrument procedures:

KAWO - Arlington Municipal Airport (23 nm W)
S43 - Harvey Field Airport (29 nm SW)
KPAE - Snohomish County Airport (Paine Field) (34 nm SW)
KBVS - Skagit Regional Airport (35 nm W)
KNUW - Whidbey Island Naval Air Station (Ault Field) Airport (42 nm W)
 
Loc | Ops | Rwys | IFR | FBO | Links
Com | Nav | Svcs | Stats | Notes
Area around 1S2 (Darrington Municipal Airport)
 
Road maps at: MapQuest Bing Google
 
Aerial photo
WARNING: Photo may not be current or correct
Aerial photo of 1S2 (Darrington Municipal Airport)
Photo by Trent Thomas
Photo taken 20-Jun-2021
Looking west (270) and approximately 500’AGL

Do you have a better or more recent aerial photo of Darrington Municipal Airport that you would like to share? If so, please send us your photo.

 
Sectional chart

 
Airport distance calculator
Flying to Darrington Municipal Airport? Find the distance to fly.

From to 1S2

Sunrise and sunset
Times for 03-Feb-2023
 Local
(UTC-8)
 Zulu
(UTC)
Morning civil twilight07:0015:00
Sunrise07:3315:33
Sunset17:0801:08
Evening civil twilight17:4101:41

Current date and time
Zulu (UTC)  04-Feb-2023 06:16:00
Local (UTC-8)  03-Feb-2023 22:16:00
 
METAR
KAWO 
23nm W 
040556Z AUTO 15018G23KT 10SM OVC021 08/05 A3002 RMK AO2 SLP169 60000 T00830050 10089 20078 53028
KPAE 
34nm SW 
040553Z AUTO 17015G25KT 10SM FEW013 FEW022 08/05 A3001 RMK AO2 PK WND 16030/0506 SLP166 60002 T00780050 10078 20072 51027
KBVS 
34nm W 
040555Z AUTO 17009G15KT 10SM OVC023 09/07 A3000 RMK A01
KNUW 
42nm W 
040453Z 16018G27KT 10SM SCT022 BKN050 OVC100 08/06 A2998 RMK PK WND 18037/0405 RAB32E48 SLP152 P0000 T00830056
TAF
KPAE 
34nm SW 
031724Z 0318/0418 16011KT P6SM OVC100 FM031900 15015G25KT P6SM -RA OVC050 FM040400 17012G18KT P6SM -SHRA BKN020 OVC030 FM041000 15010KT P6SM -RA SCT010 OVC020 FM041600 16011KT P6SM -RA OVC020
KNUW 
42nm W 
0323/0423 16022G36KT 9999 VCSH SCT010 BKN030 BKN050 OVC150 630409 530003 550309 551209 QNH2980INS TEMPO 0400/0406 15012G18KT 9000 -RA BR SCT008 BKN020 OVC035 FM040600 16018G32KT 9999 VCSH SCT015 BKN030 OVC055 630509 530003 550309 551209 QNH2992INS TEMPO 0406/0412 15008G18KT 9000 -RA BR SCT008 BKN018 OVC030 FM041700 16018G32KT 9999 VCSH SCT010 BKN030 OVC055 630509 530003 550309 551209 QNH2990INS TEMPO 0417/0423 15008G18KT 9000 RA BR SCT008 BKN018 OVC030 T10/0323Z T04/0412Z FS30028
NOTAMs
Click for the latest NOTAMs
NOTAMs are issued by the DoD/FAA and will open in a separate window not controlled by AirNav.

 

 
 

Would you like to see your business listed on this page?

 If your business provides an interesting product or service to pilots, flight crews, aircraft, or users of the Darrington Municipal Airport, you should consider listing it here.  To start the listing process, click on the button below
 
Add a business
 

Other Pages about Darrington Municipal Airport

Update a link
 
Copyright © AirNav, LLC. All rights reserved. Privacy Policy  Contact